sensor_id;sensor_type;location;lat;lon;timestamp;pressure;altitude;pressure_sealevel;temperature;humidity
69402;BME280;56589;51.992;5.924;2023-03-22T00:02:25;100398.06;;;9.12;76.64
69402;BME280;56589;51.992;5.924;2023-03-22T00:04:51;100399.84;;;9.12;76.42
69402;BME280;56589;51.992;5.924;2023-03-22T00:07:17;100397.34;;;9.10;76.38
69402;BME280;56589;51.992;5.924;2023-03-22T00:09:43;100393.03;;;9.09;76.60
69402;BME280;56589;51.992;5.924;2023-03-22T00:12:14;100396.59;;;9.08;76.22
69402;BME280;56589;51.992;5.924;2023-03-22T00:14:40;100387.16;;;9.06;76.21
69402;BME280;56589;51.992;5.924;2023-03-22T00:17:06;100390.69;;;9.05;76.35
69402;BME280;56589;51.992;5.924;2023-03-22T00:19:32;100391.75;;;9.02;76.32
69402;BME280;56589;51.992;5.924;2023-03-22T00:21:57;100379.59;;;9.01;76.41
69402;BME280;56589;51.992;5.924;2023-03-22T00:24:23;100383.13;;;9.00;76.22
69402;BME280;56589;51.992;5.924;2023-03-22T00:26:49;100385.03;;;8.98;76.05
69402;BME280;56589;51.992;5.924;2023-03-22T00:29:17;100384.41;;;8.94;76.25
69402;BME280;56589;51.992;5.924;2023-03-22T00:31:44;100374.84;;;8.93;76.14
69402;BME280;56589;51.992;5.924;2023-03-22T00:34:09;100379.44;;;8.90;75.94
69402;BME280;56589;51.992;5.924;2023-03-22T00:36:35;100376.06;;;8.88;75.99
69402;BME280;56589;51.992;5.924;2023-03-22T00:39:01;100364.84;;;8.86;76.48
69402;BME280;56589;51.992;5.924;2023-03-22T00:41:27;100377.09;;;8.85;76.14
69402;BME280;56589;51.992;5.924;2023-03-22T00:43:53;100371.88;;;8.85;76.13
69402;BME280;56589;51.992;5.924;2023-03-22T00:46:23;100367.59;;;8.84;76.20
69402;BME280;56589;51.992;5.924;2023-03-22T00:48:49;100362.34;;;8.84;76.35
69402;BME280;56589;51.992;5.924;2023-03-22T00:51:19;100369.25;;;8.85;76.35
69402;BME280;56589;51.992;5.924;2023-03-22T00:53:51;100356.28;;;8.84;75.93
69402;BME280;56589;51.992;5.924;2023-03-22T00:56:17;100351.03;;;8.84;76.42
69402;BME280;56589;51.992;5.924;2023-03-22T00:58:46;100357.00;;;8.86;76.31
69402;BME280;56589;51.992;5.924;2023-03-22T01:01:17;100348.41;;;8.84;76.27
69402;BME280;56589;51.992;5.924;2023-03-22T01:03:46;100345.69;;;8.85;75.91
69402;BME280;56589;51.992;5.924;2023-03-22T01:06:12;100338.69;;;8.86;76.24
69402;BME280;56589;51.992;5.924;2023-03-22T01:08:41;100340.47;;;8.85;76.23
69402;BME280;56589;51.992;5.924;2023-03-22T01:11:10;100337.13;;;8.83;75.95
69402;BME280;56589;51.992;5.924;2023-03-22T01:13:39;100331.94;;;8.82;75.82
69402;BME280;56589;51.992;5.924;2023-03-22T01:16:09;100335.34;;;8.84;75.87
69402;BME280;56589;51.992;5.924;2023-03-22T01:18:35;100324.84;;;8.84;76.13
69402;BME280;56589;51.992;5.924;2023-03-22T01:21:04;100317.75;;;8.86;76.33
69402;BME280;56589;51.992;5.924;2023-03-22T01:23:33;100318.47;;;8.88;76.20
69402;BME280;56589;51.992;5.924;2023-03-22T01:26:04;100313.34;;;8.86;75.98
69402;BME280;56589;51.992;5.924;2023-03-22T01:28:31;100302.88;;;8.86;75.91
69402;BME280;56589;51.992;5.924;2023-03-22T01:31:05;100300.34;;;8.85;76.19
69402;BME280;56589;51.992;5.924;2023-03-22T01:34:01;100302.97;;;8.85;75.71
69402;BME280;56589;51.992;5.924;2023-03-22T01:36:31;100296.16;;;8.82;76.12
69402;BME280;56589;51.992;5.924;2023-03-22T01:39:03;100290.06;;;8.82;76.09
69402;BME280;56589;51.992;5.924;2023-03-22T01:41:29;100287.44;;;8.82;76.28
69402;BME280;56589;51.992;5.924;2023-03-22T01:44:06;100289.22;;;8.81;75.98
69402;BME280;56589;51.992;5.924;2023-03-22T01:46:37;100276.34;;;8.78;76.06
69402;BME280;56589;51.992;5.924;2023-03-22T01:49:06;100271.31;;;8.75;76.16
69402;BME280;56589;51.992;5.924;2023-03-22T01:51:45;100270.38;;;8.76;76.25
69402;BME280;56589;51.992;5.924;2023-03-22T01:54:19;100268.78;;;8.74;76.37
69402;BME280;56589;51.992;5.924;2023-03-22T01:56:51;100260.09;;;8.73;76.51
69402;BME280;56589;51.992;5.924;2023-03-22T01:59:19;100256.66;;;8.73;76.34
69402;BME280;56589;51.992;5.924;2023-03-22T02:01:59;100251.53;;;8.71;76.91
69402;BME280;56589;51.992;5.924;2023-03-22T02:04:32;100242.63;;;8.74;76.80
69402;BME280;56589;51.992;5.924;2023-03-22T02:07:07;100231.22;;;8.75;76.93
69402;BME280;56589;51.992;5.924;2023-03-22T02:09:39;100235.50;;;8.76;76.76
69402;BME280;56589;51.992;5.924;2023-03-22T02:12:18;100233.63;;;8.78;77.08
69402;BME280;56589;51.992;5.924;2023-03-22T02:15:02;100216.88;;;8.80;76.95
69402;BME280;56589;51.992;5.924;2023-03-22T02:17:42;100218.25;;;8.86;77.39
69402;BME280;56589;51.992;5.924;2023-03-22T02:20:54;100217.22;;;8.88;77.36
69402;BME280;56589;51.992;5.924;2023-03-22T02:27:03;100207.91;;;8.97;77.69
69402;BME280;56589;51.992;5.924;2023-03-22T02:29:59;100213.81;;;9.01;77.84
69402;BME280;56589;51.992;5.924;2023-03-22T02:33:12;100208.25;;;9.05;77.67
69402;BME280;56589;51.992;5.924;2023-03-22T02:39:17;100203.75;;;9.07;78.15
69402;BME280;56589;51.992;5.924;2023-03-22T02:42:03;100193.78;;;9.12;78.27
69402;BME280;56589;51.992;5.924;2023-03-22T02:44:42;100194.31;;;9.17;78.04
69402;BME280;56589;51.992;5.924;2023-03-22T02:47:34;100191.41;;;9.22;78.04
69402;BME280;56589;51.992;5.924;2023-03-22T02:50:13;100186.84;;;9.26;78.17
69402;BME280;56589;51.992;5.924;2023-03-22T02:52:51;100183.25;;;9.27;78.39
69402;BME280;56589;51.992;5.924;2023-03-22T02:55:23;100182.19;;;9.29;78.44
69402;BME280;56589;51.992;5.924;2023-03-22T02:57:57;100174.47;;;9.28;78.29
69402;BME280;56589;51.992;5.924;2023-03-22T03:00:29;100168.06;;;9.32;78.23
69402;BME280;56589;51.992;5.924;2023-03-22T03:03:05;100173.09;;;9.35;78.32
69402;BME280;56589;51.992;5.924;2023-03-22T03:05:34;100169.44;;;9.37;78.31
69402;BME280;56589;51.992;5.924;2023-03-22T03:08:01;100168.25;;;9.41;78.56
69402;BME280;56589;51.992;5.924;2023-03-22T03:10:31;100168.91;;;9.45;78.50
69402;BME280;56589;51.992;5.924;2023-03-22T03:12:58;100172.34;;;9.45;78.60
69402;BME280;56589;51.992;5.924;2023-03-22T03:15:24;100159.13;;;9.47;78.21
69402;BME280;56589;51.992;5.924;2023-03-22T03:18:01;100157.25;;;9.49;78.52
69402;BME280;56589;51.992;5.924;2023-03-22T03:20:43;100152.00;;;9.49;78.32
69402;BME280;56589;51.992;5.924;2023-03-22T03:23:27;100152.94;;;9.48;78.69
69402;BME280;56589;51.992;5.924;2023-03-22T03:26:08;100140.78;;;9.47;78.47
69402;BME280;56589;51.992;5.924;2023-03-22T03:28:46;100145.94;;;9.48;78.75
69402;BME280;56589;51.992;5.924;2023-03-22T03:31:25;100148.53;;;9.48;78.63
69402;BME280;56589;51.992;5.924;2023-03-22T03:34:01;100147.94;;;9.45;78.14
69402;BME280;56589;51.992;5.924;2023-03-22T03:36:41;100147.09;;;9.44;78.44
69402;BME280;56589;51.992;5.924;2023-03-22T03:39:13;100146.28;;;9.44;78.59
69402;BME280;56589;51.992;5.924;2023-03-22T03:41:46;100142.91;;;9.42;78.72
69402;BME280;56589;51.992;5.924;2023-03-22T03:44:17;100147.19;;;9.43;78.37
69402;BME280;56589;51.992;5.924;2023-03-22T03:46:44;100142.91;;;9.42;78.56
69402;BME280;56589;51.992;5.924;2023-03-22T03:49:12;100154.13;;;9.44;78.48
69402;BME280;56589;51.992;5.924;2023-03-22T03:51:46;100147.19;;;9.43;78.44
69402;BME280;56589;51.992;5.924;2023-03-22T03:54:13;100149.81;;;9.43;78.76
69402;BME280;56589;51.992;5.924;2023-03-22T03:56:39;100150.75;;;9.42;78.76
69402;BME280;56589;51.992;5.924;2023-03-22T03:59:07;100142.91;;;9.42;78.66
69402;BME280;56589;51.992;5.924;2023-03-22T04:01:33;100150.03;;;9.40;78.73
69402;BME280;56589;51.992;5.924;2023-03-22T04:04:00;100149.09;;;9.41;78.92
69402;BME280;56589;51.992;5.924;2023-03-22T04:06:25;100147.31;;;9.41;78.54
69402;BME280;56589;51.992;5.924;2023-03-22T04:08:52;100143.00;;;9.40;78.92
69402;BME280;56589;51.992;5.924;2023-03-22T04:11:18;100150.16;;;9.38;78.52
69402;BME280;56589;51.992;5.924;2023-03-22T04:13:44;100153.81;;;9.36;78.47
69402;BME280;56589;51.992;5.924;2023-03-22T04:16:12;100144.50;;;9.32;78.76
69402;BME280;56589;51.992;5.924;2023-03-22T04:18:38;100150.66;;;9.31;78.93
69402;BME280;56589;51.992;5.924;2023-03-22T04:21:04;100144.69;;;9.29;78.90
69402;BME280;56589;51.992;5.924;2023-03-22T04:23:30;100151.00;;;9.26;78.41
69402;BME280;56589;51.992;5.924;2023-03-22T04:25:56;100141.53;;;9.23;78.96
69402;BME280;56589;51.992;5.924;2023-03-22T04:28:22;100146.03;;;9.21;78.73
69402;BME280;56589;51.992;5.924;2023-03-22T04:30:48;100146.03;;;9.21;78.70
69402;BME280;56589;51.992;5.924;2023-03-22T04:33:16;100137.44;;;9.19;78.52
69402;BME280;56589;51.992;5.924;2023-03-22T04:35:43;100124.44;;;9.18;78.59
69402;BME280;56589;51.992;5.924;2023-03-22T04:38:09;100129.06;;;9.14;78.40
69402;BME280;56589;51.992;5.924;2023-03-22T04:40:35;100127.47;;;9.12;79.09
69402;BME280;56589;51.992;5.924;2023-03-22T04:43:01;100126.75;;;9.10;78.95
69402;BME280;56589;51.992;5.924;2023-03-22T04:45:26;100126.97;;;9.07;78.77
69402;BME280;56589;51.992;5.924;2023-03-22T04:47:52;100130.50;;;9.06;79.01
69402;BME280;56589;51.992;5.924;2023-03-22T04:50:21;100126.22;;;9.05;78.58
69402;BME280;56589;51.992;5.924;2023-03-22T04:52:47;100122.88;;;9.03;79.00
69402;BME280;56589;51.992;5.924;2023-03-22T04:55:12;100126.44;;;9.02;78.63
69402;BME280;56589;51.992;5.924;2023-03-22T04:57:41;100109.97;;;9.00;78.98
69402;BME280;56589;51.992;5.924;2023-03-22T05:00:08;100117.00;;;8.99;79.07
69402;BME280;56589;51.992;5.924;2023-03-22T05:02:34;100121.53;;;8.97;78.84
69402;BME280;56589;51.992;5.924;2023-03-22T05:05:00;100119.00;;;8.95;79.13
69402;BME280;56589;51.992;5.924;2023-03-22T05:07:28;100122.47;;;8.96;78.86
69402;BME280;56589;51.992;5.924;2023-03-22T05:09:54;100115.63;;;8.93;79.10
69402;BME280;56589;51.992;5.924;2023-03-22T05:12:20;100109.56;;;8.93;79.22
69402;BME280;56589;51.992;5.924;2023-03-22T05:14:46;100107.91;;;8.92;79.14
69402;BME280;56589;51.992;5.924;2023-03-22T05:17:11;100110.50;;;8.92;78.83
69402;BME280;56589;51.992;5.924;2023-03-22T05:19:37;100105.28;;;8.92;78.96
69402;BME280;56589;51.992;5.924;2023-03-22T05:22:03;100114.81;;;8.93;79.22
69402;BME280;56589;51.992;5.924;2023-03-22T05:24:32;100116.41;;;8.95;78.90
69402;BME280;56589;51.992;5.924;2023-03-22T05:26:57;100106.66;;;8.98;79.28
69402;BME280;56589;51.992;5.924;2023-03-22T05:29:23;100107.38;;;9.00;79.42
69402;BME280;56589;51.992;5.924;2023-03-22T05:31:49;100102.97;;;9.00;79.32
69402;BME280;56589;51.992;5.924;2023-03-22T05:34:15;100097.72;;;9.00;79.23
69402;BME280;56589;51.992;5.924;2023-03-22T05:36:40;100100.47;;;8.99;78.89
69402;BME280;56589;51.992;5.924;2023-03-22T05:39:06;100107.47;;;8.98;79.29
69402;BME280;56589;51.992;5.924;2023-03-22T05:41:35;100096.16;;;8.98;79.31
69402;BME280;56589;51.992;5.924;2023-03-22T05:44:01;100094.50;;;8.96;78.77
69402;BME280;56589;51.992;5.924;2023-03-22T05:46:27;100104.13;;;8.96;78.82
69402;BME280;56589;51.992;5.924;2023-03-22T05:48:53;100100.75;;;8.94;79.14
69402;BME280;56589;51.992;5.924;2023-03-22T05:51:18;100099.22;;;8.91;79.00
69402;BME280;56589;51.992;5.924;2023-03-22T05:53:45;100100.16;;;8.90;78.85
69402;BME280;56589;51.992;5.924;2023-03-22T05:56:12;100103.81;;;8.88;78.97
69402;BME280;56589;51.992;5.924;2023-03-22T05:58:41;100089.16;;;8.85;79.04
69402;BME280;56589;51.992;5.924;2023-03-22T06:01:09;100091.88;;;8.84;78.89
69402;BME280;56589;51.992;5.924;2023-03-22T06:03:37;100086.66;;;8.84;79.02
69402;BME280;56589;51.992;5.924;2023-03-22T06:06:03;100100.69;;;8.83;79.18
69402;BME280;56589;51.992;5.924;2023-03-22T06:08:31;100097.13;;;8.84;78.72
69402;BME280;56589;51.992;5.924;2023-03-22T06:10:57;100097.13;;;8.84;78.78
69402;BME280;56589;51.992;5.924;2023-03-22T06:13:23;100092.41;;;8.89;78.91
69402;BME280;56589;51.992;5.924;2023-03-22T06:15:51;100088.75;;;8.91;78.86
69402;BME280;56589;51.992;5.924;2023-03-22T06:18:17;100085.16;;;8.92;79.14
69402;BME280;56589;51.992;5.924;2023-03-22T06:20:43;100086.00;;;8.93;78.89
69402;BME280;56589;51.992;5.924;2023-03-22T06:23:09;100080.78;;;8.93;78.82
69402;BME280;56589;51.992;5.924;2023-03-22T06:25:35;100088.63;;;8.93;78.83
69402;BME280;56589;51.992;5.924;2023-03-22T06:28:01;100081.59;;;8.93;78.78
69402;BME280;56589;51.992;5.924;2023-03-22T06:30:27;100072.06;;;8.92;78.61
69402;BME280;56589;51.992;5.924;2023-03-22T06:32:56;100083.31;;;8.94;78.77
69402;BME280;56589;51.992;5.924;2023-03-22T06:35:22;100087.69;;;8.94;78.86
69402;BME280;56589;51.992;5.924;2023-03-22T06:37:48;100094.50;;;8.96;78.79
69402;BME280;56589;51.992;5.924;2023-03-22T06:40:14;100088.44;;;8.96;78.63
69402;BME280;56589;51.992;5.924;2023-03-22T06:42:40;100083.19;;;8.96;78.55
69402;BME280;56589;51.992;5.924;2023-03-22T06:45:07;100086.53;;;8.98;78.55
69402;BME280;56589;51.992;5.924;2023-03-22T06:47:33;100096.06;;;8.99;78.25
69402;BME280;56589;51.992;5.924;2023-03-22T06:50:02;100082.13;;;8.99;78.39
69402;BME280;56589;51.992;5.924;2023-03-22T06:52:28;100086.41;;;9.00;77.98
69402;BME280;56589;51.992;5.924;2023-03-22T06:54:54;100088.72;;;9.04;78.07
69402;BME280;56589;51.992;5.924;2023-03-22T06:57:20;100082.22;;;9.10;77.99
69402;BME280;56589;51.992;5.924;2023-03-22T06:59:45;100094.91;;;9.16;78.40
69402;BME280;56589;51.992;5.924;2023-03-22T07:02:12;100082.88;;;9.26;78.38
69402;BME280;56589;51.992;5.924;2023-03-22T07:04:38;100089.78;;;9.40;77.83
69402;BME280;56589;51.992;5.924;2023-03-22T07:07:06;100087.97;;;9.53;77.72
69402;BME280;56589;51.992;5.924;2023-03-22T07:09:32;100092.22;;;9.67;77.92
69402;BME280;56589;51.992;5.924;2023-03-22T07:11:58;100087.28;;;9.75;77.46
69402;BME280;56589;51.992;5.924;2023-03-22T07:14:27;100088.38;;;9.84;77.27
69402;BME280;56589;51.992;5.924;2023-03-22T07:16:53;100089.41;;;9.94;76.83
69402;BME280;56589;51.992;5.924;2023-03-22T07:19:18;100088.13;;;9.99;76.89
69402;BME280;56589;51.992;5.924;2023-03-22T07:21:44;100092.94;;;10.06;76.21
69402;BME280;56589;51.992;5.924;2023-03-22T07:24:13;100094.34;;;10.10;76.18
69402;BME280;56589;51.992;5.924;2023-03-22T07:26:39;100095.69;;;10.15;76.36
69402;BME280;56589;51.992;5.924;2023-03-22T07:29:05;100084.88;;;10.20;76.03
69402;BME280;56589;51.992;5.924;2023-03-22T07:31:33;100089.78;;;10.24;75.67
69402;BME280;56589;51.992;5.924;2023-03-22T07:33:59;100085.03;;;10.29;75.79
69402;BME280;56589;51.992;5.924;2023-03-22T07:36:25;100084.69;;;10.34;75.73
69402;BME280;56589;51.992;5.924;2023-03-22T07:38:51;100081.22;;;10.34;75.16
69402;BME280;56589;51.992;5.924;2023-03-22T07:41:19;100081.22;;;10.34;75.20
69402;BME280;56589;51.992;5.924;2023-03-22T07:43:45;100077.66;;;10.35;74.92
69402;BME280;56589;51.992;5.924;2023-03-22T07:46:11;100079.69;;;10.31;75.13
69402;BME280;56589;51.992;5.924;2023-03-22T07:48:37;100085.03;;;10.29;74.79
69402;BME280;56589;51.992;5.924;2023-03-22T07:51:04;100086.94;;;10.27;75.13
69402;BME280;56589;51.992;5.924;2023-03-22T07:53:30;100090.38;;;10.28;74.81
69402;BME280;56589;51.992;5.924;2023-03-22T07:55:55;100082.75;;;10.25;74.65
69402;BME280;56589;51.992;5.924;2023-03-22T07:58:24;100084.44;;;10.26;74.99
69402;BME280;56589;51.992;5.924;2023-03-22T08:00:50;100098.03;;;10.31;75.01
69402;BME280;56589;51.992;5.924;2023-03-22T08:03:18;100081.97;;;10.36;75.04
69402;BME280;56589;51.992;5.924;2023-03-22T08:05:44;100087.81;;;10.39;74.33
69402;BME280;56589;51.992;5.924;2023-03-22T08:08:10;100083.28;;;10.41;74.70
69402;BME280;56589;51.992;5.924;2023-03-22T08:10:36;100080.44;;;10.44;74.66
69402;BME280;56589;51.992;5.924;2023-03-22T08:13:02;100080.94;;;10.49;74.54
69402;BME280;56589;51.992;5.924;2023-03-22T08:15:30;100082.59;;;10.50;74.29
69402;BME280;56589;51.992;5.924;2023-03-22T08:17:57;100081.31;;;10.56;73.72
69402;BME280;56589;51.992;5.924;2023-03-22T08:20:22;100081.31;;;10.56;73.79
69402;BME280;56589;51.992;5.924;2023-03-22T08:22:49;100075.94;;;10.57;74.32
69402;BME280;56589;51.992;5.924;2023-03-22T08:25:15;100087.75;;;10.63;73.69
69402;BME280;56589;51.992;5.924;2023-03-22T08:27:41;100076.09;;;10.67;73.67
69402;BME280;56589;51.992;5.924;2023-03-22T08:30:08;100084.34;;;10.74;73.50
69402;BME280;56589;51.992;5.924;2023-03-22T08:32:37;100092.22;;;10.74;73.19
69402;BME280;56589;51.992;5.924;2023-03-22T08:35:04;100086.84;;;10.75;72.81
69402;BME280;56589;51.992;5.924;2023-03-22T08:37:30;100087.78;;;10.74;72.80
69402;BME280;56589;51.992;5.924;2023-03-22T08:39:56;100098.03;;;10.77;72.88
69402;BME280;56589;51.992;5.924;2023-03-22T08:42:24;100092.34;;;10.83;73.13
69402;BME280;56589;51.992;5.924;2023-03-22T08:44:50;100089.16;;;10.91;72.42
69402;BME280;56589;51.992;5.924;2023-03-22T08:47:15;100089.75;;;10.95;72.35
69402;BME280;56589;51.992;5.924;2023-03-22T08:49:44;100089.28;;;11.01;72.47
69402;BME280;56589;51.992;5.924;2023-03-22T08:52:10;100078.31;;;11.07;72.67
69402;BME280;56589;51.992;5.924;2023-03-22T08:54:35;100086.91;;;11.20;72.73
69402;BME280;56589;51.992;5.924;2023-03-22T08:57:01;100082.47;;;11.32;71.74
69402;BME280;56589;51.992;5.924;2023-03-22T08:59:28;100070.53;;;11.39;71.88
69402;BME280;56589;51.992;5.924;2023-03-22T09:01:53;100075.91;;;11.49;71.86
69402;BME280;56589;51.992;5.924;2023-03-22T09:04:19;100079.09;;;11.63;71.34
69402;BME280;56589;51.992;5.924;2023-03-22T09:06:48;100081.34;;;11.79;70.91
69402;BME280;56589;51.992;5.924;2023-03-22T09:09:13;100077.97;;;11.88;70.59
69402;BME280;56589;51.992;5.924;2023-03-22T09:11:39;100070.53;;;11.94;69.55
69402;BME280;56589;51.992;5.924;2023-03-22T09:14:05;100074.72;;;11.96;69.87
69402;BME280;56589;51.992;5.924;2023-03-22T09:16:31;100076.13;;;12.00;69.71
69402;BME280;56589;51.992;5.924;2023-03-22T09:18:57;100073.50;;;12.00;68.22
69402;BME280;56589;51.992;5.924;2023-03-22T09:21:23;100073.50;;;12.00;68.04
69402;BME280;56589;51.992;5.924;2023-03-22T09:23:51;100068.00;;;12.03;68.47
69402;BME280;56589;51.992;5.924;2023-03-22T09:26:17;100072.78;;;12.09;68.39
69402;BME280;56589;51.992;5.924;2023-03-22T09:28:43;100052.88;;;12.16;68.16
69402;BME280;56589;51.992;5.924;2023-03-22T09:31:09;100062.94;;;12.23;67.69
69402;BME280;56589;51.992;5.924;2023-03-22T09:33:38;100051.19;;;12.27;67.45
69402;BME280;56589;51.992;5.924;2023-03-22T09:36:05;100058.97;;;12.28;66.75
69402;BME280;56589;51.992;5.924;2023-03-22T09:38:31;100057.53;;;12.24;66.41
69402;BME280;56589;51.992;5.924;2023-03-22T09:41:02;100064.00;;;12.20;67.11
69402;BME280;56589;51.992;5.924;2023-03-22T09:43:33;100069.38;;;12.18;66.70
69402;BME280;56589;51.992;5.924;2023-03-22T09:46:04;100062.72;;;12.14;67.04
69402;BME280;56589;51.992;5.924;2023-03-22T09:48:38;100063.06;;;12.10;66.66
69402;BME280;56589;51.992;5.924;2023-03-22T09:51:18;100063.44;;;12.05;66.51
69402;BME280;56589;51.992;5.924;2023-03-22T09:53:53;100061.59;;;11.96;66.22
69402;BME280;56589;51.992;5.924;2023-03-22T09:56:22;100056.91;;;11.88;66.34
69402;BME280;56589;51.992;5.924;2023-03-22T09:58:56;100059.59;;;11.77;66.69
69402;BME280;56589;51.992;5.924;2023-03-22T10:01:35;100064.53;;;11.71;66.36
69402;BME280;56589;51.992;5.924;2023-03-22T10:04:20;100052.69;;;11.65;66.35
69402;BME280;56589;51.992;5.924;2023-03-22T10:07:05;100060.00;;;11.61;67.06
69402;BME280;56589;51.992;5.924;2023-03-22T10:09:46;100064.63;;;11.58;66.46
69402;BME280;56589;51.992;5.924;2023-03-22T10:12:25;100065.72;;;11.55;67.06
69402;BME280;56589;51.992;5.924;2023-03-22T10:15:00;100066.44;;;11.57;66.76
69402;BME280;56589;51.992;5.924;2023-03-22T10:17:30;100069.06;;;11.57;66.70
69402;BME280;56589;51.992;5.924;2023-03-22T10:19:58;100065.38;;;11.60;66.80
69402;BME280;56589;51.992;5.924;2023-03-22T10:22:31;100057.63;;;11.58;66.56
69402;BME280;56589;51.992;5.924;2023-03-22T10:25:01;100065.59;;;11.57;67.09
69402;BME280;56589;51.992;5.924;2023-03-22T10:27:33;100062.28;;;11.55;67.25
69402;BME280;56589;51.992;5.924;2023-03-22T10:30:05;100060.00;;;11.50;67.35
69402;BME280;56589;51.992;5.924;2023-03-22T10:32:39;100060.34;;;11.46;67.98
69402;BME280;56589;51.992;5.924;2023-03-22T10:35:12;100057.38;;;11.39;67.93
69402;BME280;56589;51.992;5.924;2023-03-22T10:37:39;100061.94;;;11.37;68.49
69402;BME280;56589;51.992;5.924;2023-03-22T10:40:15;100044.50;;;11.36;68.51
69402;BME280;56589;51.992;5.924;2023-03-22T10:42:51;100067.53;;;11.32;68.95
69402;BME280;56589;51.992;5.924;2023-03-22T10:45:22;100068.03;;;11.26;69.05
69402;BME280;56589;51.992;5.924;2023-03-22T10:47:54;100070.66;;;11.26;69.33
69402;BME280;56589;51.992;5.924;2023-03-22T10:50:26;100073.53;;;11.23;69.51
69402;BME280;56589;51.992;5.924;2023-03-22T10:53:00;100080.81;;;11.20;70.16
69402;BME280;56589;51.992;5.924;2023-03-22T10:55:36;100070.56;;;11.17;70.51
69402;BME280;56589;51.992;5.924;2023-03-22T10:58:11;100072.69;;;11.12;70.62
69402;BME280;56589;51.992;5.924;2023-03-22T11:00:46;100072.22;;;11.06;70.93
69402;BME280;56589;51.992;5.924;2023-03-22T11:03:28;100074.22;;;11.03;71.50
69402;BME280;56589;51.992;5.924;2023-03-22T11:06:09;100076.41;;;10.98;71.45
69402;BME280;56589;51.992;5.924;2023-03-22T11:08:40;100083.06;;;11.02;72.05
69402;BME280;56589;51.992;5.924;2023-03-22T11:11:19;100083.69;;;11.05;72.17
69402;BME280;56589;51.992;5.924;2023-03-22T11:13:55;100087.00;;;11.07;71.98
69402;BME280;56589;51.992;5.924;2023-03-22T11:16:26;100076.38;;;11.09;72.17
69402;BME280;56589;51.992;5.924;2023-03-22T11:18:53;100077.94;;;11.12;72.51
69402;BME280;56589;51.992;5.924;2023-03-22T11:21:25;100085.00;;;11.11;72.12
69402;BME280;56589;51.992;5.924;2023-03-22T11:23:58;100073.75;;;11.09;72.87
69402;BME280;56589;51.992;5.924;2023-03-22T11:26:31;100073.75;;;11.09;72.94
69402;BME280;56589;51.992;5.924;2023-03-22T11:29:06;100073.75;;;11.09;72.70
69402;BME280;56589;51.992;5.924;2023-03-22T11:31:55;100081.63;;;11.09;73.21
69402;BME280;56589;51.992;5.924;2023-03-22T11:34:25;100070.53;;;11.05;73.06
69402;BME280;56589;51.992;5.924;2023-03-22T11:36:52;100070.91;;;11.01;73.27
69402;BME280;56589;51.992;5.924;2023-03-22T11:39:19;100064.59;;;11.03;73.30
69402;BME280;56589;51.992;5.924;2023-03-22T11:41:48;100056.56;;;11.05;73.56
69402;BME280;56589;51.992;5.924;2023-03-22T11:44:20;100075.69;;;11.07;73.66
69402;BME280;56589;51.992;5.924;2023-03-22T11:46:48;100068.63;;;11.07;73.51
69402;BME280;56589;51.992;5.924;2023-03-22T11:49:18;100068.75;;;11.06;73.25
69402;BME280;56589;51.992;5.924;2023-03-22T11:51:48;100062.66;;;11.05;73.57
69402;BME280;56589;51.992;5.924;2023-03-22T11:54:19;100062.53;;;11.07;73.31
69402;BME280;56589;51.992;5.924;2023-03-22T11:56:54;100065.88;;;11.09;73.64
69402;BME280;56589;51.992;5.924;2023-03-22T11:59:27;100052.03;;;11.07;72.99
69402;BME280;56589;51.992;5.924;2023-03-22T12:01:59;100060.16;;;11.04;73.10
69402;BME280;56589;51.992;5.924;2023-03-22T12:04:33;100060.75;;;11.07;73.58
69402;BME280;56589;51.992;5.924;2023-03-22T12:07:10;100055.84;;;11.14;73.40
69402;BME280;56589;51.992;5.924;2023-03-22T12:09:43;100067.81;;;11.18;73.20
69402;BME280;56589;51.992;5.924;2023-03-22T12:12:19;100048.44;;;11.19;73.04
69402;BME280;56589;51.992;5.924;2023-03-22T12:14:56;100059.22;;;11.16;73.38
69402;BME280;56589;51.992;5.924;2023-03-22T12:17:30;100033.78;;;11.17;73.45
69402;BME280;56589;51.992;5.924;2023-03-22T12:20:06;100043.31;;;11.18;73.02
69402;BME280;56589;51.992;5.924;2023-03-22T12:22:42;100043.44;;;11.16;72.90
69402;BME280;56589;51.992;5.924;2023-03-22T12:25:15;100059.22;;;11.16;72.90
69402;BME280;56589;51.992;5.924;2023-03-22T12:27:46;100055.50;;;11.19;73.16
69402;BME280;56589;51.992;5.924;2023-03-22T12:30:20;100060.88;;;11.17;72.71
69402;BME280;56589;51.992;5.924;2023-03-22T12:32:51;100062.06;;;11.13;72.99
69402;BME280;56589;51.992;5.924;2023-03-22T12:35:29;100052.66;;;11.10;72.95
69402;BME280;56589;51.992;5.924;2023-03-22T12:38:00;100050.00;;;11.10;72.96
69402;BME280;56589;51.992;5.924;2023-03-22T12:40:37;100044.75;;;11.10;72.62
69402;BME280;56589;51.992;5.924;2023-03-22T12:43:10;100060.63;;;11.09;72.99
69402;BME280;56589;51.992;5.924;2023-03-22T12:45:47;100049.19;;;11.10;72.88
69402;BME280;56589;51.992;5.924;2023-03-22T12:48:22;100050.00;;;11.10;72.77
69402;BME280;56589;51.992;5.924;2023-03-22T12:50:59;100051.69;;;11.12;72.94
69402;BME280;56589;51.992;5.924;2023-03-22T12:53:32;100048.69;;;11.16;72.99
69402;BME280;56589;51.992;5.924;2023-03-22T12:56:00;100050.38;;;11.17;72.52
69402;BME280;56589;51.992;5.924;2023-03-22T12:58:27;100051.91;;;11.20;72.25
69402;BME280;56589;51.992;5.924;2023-03-22T13:00:57;100060.53;;;11.22;72.74
69402;BME280;56589;51.992;5.924;2023-03-22T13:03:38;100052.75;;;11.20;72.10
69402;BME280;56589;51.992;5.924;2023-03-22T13:06:29;100053.69;;;11.19;72.42
69402;BME280;56589;51.992;5.924;2023-03-22T13:09:34;100048.69;;;11.16;72.50
69402;BME280;56589;51.992;5.924;2023-03-22T13:12:27;100052.16;;;11.17;72.16
69402;BME280;56589;51.992;5.924;2023-03-22T13:14:59;100048.69;;;11.16;72.43
69402;BME280;56589;51.992;5.924;2023-03-22T13:17:39;100051.78;;;11.21;72.67
69402;BME280;56589;51.992;5.924;2023-03-22T13:20:35;100045.59;;;11.22;72.11